createdAt,value
2019-05-03T00:02:25.511Z,90.82
2019-05-03T00:05:02.367Z,90.76
2019-05-03T00:07:31.702Z,90.66
2019-05-03T00:10:00.057Z,91.22
2019-05-03T00:12:28.306Z,90.71
2019-05-03T00:17:34.254Z,91.31
2019-05-03T00:20:02.526Z,90.92
2019-05-03T00:22:32.379Z,91.22
2019-05-03T00:25:05.853Z,91.33
2019-05-03T00:27:32.270Z,91.43
2019-05-03T00:30:02.657Z,91.28
2019-05-03T00:32:32.151Z,91.14
2019-05-03T00:35:12.047Z,91.29
2019-05-03T00:37:42.046Z,91.40
2019-05-03T00:40:12.309Z,90.60
2019-05-03T00:42:42.325Z,90.84
2019-05-03T00:45:12.527Z,90.71
2019-05-03T00:47:42.152Z,90.34
2019-05-03T00:50:11.916Z,89.87
2019-05-03T00:52:39.860Z,89.98
2019-05-03T00:55:16.215Z,89.73
2019-05-03T00:57:38.105Z,89.40
2019-05-03T01:00:08.070Z,88.72
2019-05-03T01:02:36.322Z,89.13
2019-05-03T01:05:06.603Z,89.44
2019-05-03T01:07:34.855Z,88.45
2019-05-03T01:10:03.494Z,88.26
2019-05-03T01:12:32.425Z,86.83
2019-05-03T01:15:02.547Z,88.06
2019-05-03T01:17:32.162Z,88.58
2019-05-03T01:20:02.562Z,88.74
2019-05-03T01:22:32.169Z,88.66
2019-05-03T01:25:02.622Z,89.45
2019-05-03T01:27:32.390Z,89.07
2019-05-03T01:30:02.617Z,88.50
2019-05-03T01:32:30.429Z,88.56
2019-05-03T01:34:58.719Z,88.92
2019-05-03T01:37:26.971Z,87.77
2019-05-03T01:39:55.218Z,88.96
2019-05-03T01:42:23.484Z,88.99
2019-05-03T01:44:52.223Z,89.63
2019-05-03T01:47:22.323Z,89.71
2019-05-03T01:49:52.204Z,90.00
2019-05-03T01:52:22.115Z,89.87
2019-05-03T01:54:52.077Z,90.13
2019-05-03T01:57:22.074Z,89.66
2019-05-03T01:59:52.076Z,90.33
2019-05-03T02:02:23.086Z,89.31
2019-05-03T02:05:12.026Z,89.07
2019-05-03T02:07:42.156Z,89.34
2019-05-03T02:10:11.910Z,89.76
2019-05-03T02:12:41.693Z,89.26
2019-05-03T02:15:11.849Z,89.95
2019-05-03T02:17:40.048Z,89.76
2019-05-03T02:20:08.293Z,89.02
2019-05-03T02:22:36.560Z,89.84
2019-05-03T02:25:06.259Z,89.45
2019-05-03T02:27:34.815Z,89.86
2019-05-03T02:30:03.482Z,90.25
2019-05-03T02:32:33.264Z,90.92
2019-05-03T02:35:02.820Z,90.91
2019-05-03T02:37:33.092Z,90.77
2019-05-03T02:40:03.878Z,90.60
2019-05-03T02:42:30.862Z,91.03
2019-05-03T02:44:59.774Z,91.56
2019-05-03T02:47:29.703Z,91.32
2019-05-03T02:49:59.592Z,91.05
2019-05-03T02:52:37.507Z,90.91
2019-05-03T02:55:07.408Z,90.80
2019-05-03T02:57:35.277Z,90.67
2019-05-03T03:00:07.650Z,90.92
2019-05-03T03:02:36.532Z,91.47
2019-05-03T03:05:05.940Z,91.58
2019-05-03T03:07:38.034Z,91.86
2019-05-03T03:10:07.206Z,91.63
2019-05-03T03:12:35.737Z,91.65
2019-05-03T03:15:06.169Z,92.02
2019-05-03T03:17:36.365Z,92.42
2019-05-03T03:20:05.925Z,92.34
2019-05-03T03:22:36.257Z,92.26
2019-05-03T03:25:06.328Z,91.99
2019-05-03T03:27:36.109Z,92.42
2019-05-03T03:30:37.939Z,92.61
2019-05-03T03:33:08.824Z,92.70
2019-05-03T03:35:39.041Z,92.57
2019-05-03T03:38:06.847Z,92.57
2019-05-03T03:40:35.787Z,92.78
2019-05-03T03:43:05.355Z,92.90
2019-05-03T03:45:35.980Z,92.98
2019-05-03T03:48:05.237Z,93.06
2019-05-03T03:50:35.955Z,93.19
2019-05-03T03:53:06.692Z,93.34
2019-05-03T03:55:35.569Z,93.36
2019-05-03T03:58:06.480Z,93.41
2019-05-03T04:00:36.172Z,93.08
2019-05-03T04:03:05.839Z,92.75
2019-05-03T04:05:35.918Z,93.12
2019-05-03T04:08:05.703Z,93.24
2019-05-03T04:10:35.236Z,93.42
2019-05-03T04:13:05.516Z,93.24
2019-05-03T04:15:41.213Z,93.09
2019-05-03T04:18:11.188Z,93.31
2019-05-03T04:20:39.445Z,93.07
2019-05-03T04:23:07.713Z,92.70
2019-05-03T04:25:36.039Z,92.51
2019-05-03T04:28:05.753Z,93.13
2019-05-03T04:30:36.360Z,90.87
2019-05-03T04:33:05.966Z,90.00
2019-05-03T04:35:36.337Z,87.87
2019-05-03T04:38:05.518Z,88.64
2019-05-03T04:40:35.856Z,88.86
2019-05-03T04:43:06.010Z,88.24
2019-05-03T04:45:36.675Z,88.45
2019-05-03T04:48:05.939Z,88.93
2019-05-03T04:50:36.754Z,89.16
2019-05-03T04:53:05.679Z,89.67
2019-05-03T04:55:36.253Z,89.63
2019-05-03T04:58:04.856Z,89.41
2019-05-03T05:00:35.560Z,89.97
2019-05-03T05:03:05.613Z,89.64
2019-05-03T05:05:33.230Z,89.79
2019-05-03T05:08:01.481Z,91.12
2019-05-03T05:10:29.756Z,91.60
2019-05-03T05:12:58.003Z,92.27
2019-05-03T05:15:26.818Z,92.22
2019-05-03T05:17:56.746Z,91.70
2019-05-03T05:20:42.772Z,91.96
2019-05-03T05:23:11.056Z,91.83
2019-05-03T05:25:40.929Z,92.02
2019-05-03T05:28:16.440Z,92.14
2019-05-03T05:30:44.707Z,91.24
2019-05-03T05:33:21.800Z,90.78
2019-05-03T05:35:51.021Z,90.97
2019-05-03T05:38:18.635Z,91.28
2019-05-03T05:40:47.051Z,91.03
2019-05-03T05:43:15.372Z,91.31
2019-05-03T05:45:44.939Z,91.67
2019-05-03T05:51:08.024Z,90.89
2019-05-03T05:53:44.746Z,90.62
2019-05-03T05:56:20.583Z,90.45
2019-05-03T05:58:50.559Z,90.97
2019-05-03T06:01:20.473Z,90.62
2019-05-03T06:03:48.796Z,90.47
2019-05-03T06:06:18.707Z,91.09
2019-05-03T06:08:51.521Z,90.50
2019-05-03T06:11:21.436Z,90.44
2019-05-03T06:13:51.337Z,90.00
2019-05-03T06:16:27.496Z,89.98
2019-05-03T06:18:57.407Z,90.34
2019-05-03T06:21:44.447Z,90.54
2019-05-03T06:24:14.799Z,91.05
2019-05-03T06:26:47.553Z,90.92
2019-05-03T06:29:15.805Z,91.48
2019-05-03T06:31:45.852Z,91.74
2019-05-03T06:34:14.953Z,92.03
2019-05-03T06:36:45.037Z,91.50
2019-05-03T06:39:15.071Z,91.59
2019-05-03T06:41:44.574Z,91.19
2019-05-03T06:44:14.444Z,91.43
2019-05-03T06:46:45.712Z,91.70
2019-05-03T06:49:17.214Z,91.16
2019-05-03T06:51:49.521Z,92.20
2019-05-03T06:54:15.974Z,91.87
2019-05-03T06:56:45.279Z,91.91
2019-05-03T06:59:24.989Z,91.82
2019-05-03T07:02:11.390Z,92.28
2019-05-03T07:04:41.396Z,91.69
2019-05-03T07:07:29.876Z,91.48
2019-05-03T07:10:04.928Z,88.87
2019-05-03T07:12:51.100Z,89.52
2019-05-03T07:15:19.350Z,88.98
2019-05-03T07:17:47.637Z,88.20
2019-05-03T07:20:15.872Z,87.56
2019-05-03T07:22:44.504Z,88.49
2019-05-03T07:25:14.842Z,88.35
2019-05-03T07:27:42.953Z,88.95
2019-05-03T07:30:11.272Z,87.60
2019-05-03T07:32:41.183Z,87.86
2019-05-03T07:35:09.439Z,88.12
2019-05-03T07:37:37.711Z,89.12
2019-05-03T07:40:06.723Z,89.02
2019-05-03T07:42:35.001Z,89.33
2019-05-03T07:45:04.953Z,88.29
2019-05-03T07:47:34.860Z,88.27
2019-05-03T07:50:05.014Z,88.92
2019-05-03T07:52:34.837Z,88.06
2019-05-03T07:55:04.605Z,88.57
2019-05-03T07:57:35.686Z,86.29
2019-05-03T08:00:05.940Z,87.63
2019-05-03T08:02:35.958Z,84.59
2019-05-03T08:05:06.325Z,83.42
2019-05-03T08:07:35.624Z,82.43
2019-05-03T08:10:08.417Z,81.69
2019-05-03T08:12:36.697Z,82.62
2019-05-03T08:15:06.642Z,83.83
2019-05-03T08:17:34.946Z,83.63
2019-05-03T08:20:05.261Z,81.79
2019-05-03T08:22:34.531Z,80.72
2019-05-03T08:25:02.904Z,80.88
2019-05-03T08:27:31.175Z,81.00
2019-05-03T08:29:59.431Z,79.68
2019-05-03T08:32:45.443Z,79.79
2019-05-03T08:35:15.490Z,81.19
2019-05-03T08:37:48.657Z,81.89
2019-05-03T08:40:17.281Z,80.48
2019-05-03T08:42:45.549Z,80.68
2019-05-03T08:45:14.823Z,81.27
2019-05-03T08:47:45.009Z,79.87
2019-05-03T08:50:20.682Z,81.23
2019-05-03T08:52:45.150Z,80.63
2019-05-03T08:55:15.628Z,80.71
2019-05-03T08:57:44.794Z,79.89
2019-05-03T09:00:20.314Z,80.92
2019-05-03T09:02:48.566Z,78.71
2019-05-03T09:05:18.562Z,76.78
2019-05-03T09:07:46.959Z,75.70
2019-05-03T09:10:24.934Z,76.34
2019-05-03T09:13:09.993Z,73.09
2019-05-03T09:15:40.114Z,74.48
2019-05-03T09:18:08.434Z,75.30
2019-05-03T09:20:36.741Z,74.00
2019-05-03T09:23:05.634Z,74.61
2019-05-03T09:25:35.499Z,73.62
2019-05-03T09:28:04.750Z,75.33
2019-05-03T09:30:35.556Z,72.69
2019-05-03T09:33:06.034Z,74.51
2019-05-03T09:35:35.908Z,75.40
2019-05-03T09:38:05.524Z,76.07
2019-05-03T09:40:35.246Z,75.82
2019-05-03T09:43:04.562Z,77.58
2019-05-03T09:45:35.089Z,76.09
2019-05-03T09:48:05.464Z,77.02
2019-05-03T09:50:33.102Z,77.00
2019-05-03T09:53:01.629Z,77.60
2019-05-03T09:55:31.561Z,76.88
2019-05-03T09:57:59.856Z,78.66
2019-05-03T10:00:28.135Z,78.28
2019-05-03T10:02:56.402Z,77.33
2019-05-03T10:05:25.537Z,77.11
2019-05-03T10:07:54.015Z,77.32
2019-05-03T10:10:24.694Z,76.81
2019-05-03T10:12:52.310Z,76.32
2019-05-03T10:15:41.253Z,76.48
2019-05-03T10:18:11.298Z,75.92
2019-05-03T10:20:39.587Z,76.19
2019-05-03T10:23:09.496Z,76.37
2019-05-03T10:25:40.326Z,75.90
2019-05-03T10:28:08.729Z,77.24
2019-05-03T10:30:37.252Z,76.93
2019-05-03T10:33:15.348Z,75.75
2019-05-03T10:35:44.992Z,75.43
2019-05-03T10:38:15.040Z,75.18
2019-05-03T10:40:45.098Z,74.58
2019-05-03T10:43:12.980Z,73.05
2019-05-03T10:45:41.251Z,69.71
2019-05-03T10:48:09.503Z,71.63
2019-05-03T10:50:37.774Z,73.56
2019-05-03T10:53:07.677Z,74.06
2019-05-03T10:55:35.960Z,72.35
2019-05-03T10:58:19.968Z,72.26
2019-05-03T11:00:53.197Z,71.90
2019-05-03T11:03:19.888Z,71.73
2019-05-03T11:05:48.160Z,70.70
2019-05-03T11:08:16.420Z,71.16
2019-05-03T11:10:44.688Z,71.54
2019-05-03T11:13:15.262Z,72.35
2019-05-03T11:15:44.407Z,73.87
2019-05-03T11:18:14.678Z,73.51
2019-05-03T11:20:42.840Z,72.83
2019-05-03T11:23:11.108Z,72.33
2019-05-03T11:25:39.386Z,73.26
2019-05-03T11:28:15.022Z,72.75
2019-05-03T11:30:53.068Z,73.15
2019-05-03T11:33:15.567Z,72.17
2019-05-03T11:35:48.429Z,71.47
2019-05-03T11:38:21.064Z,71.45
2019-05-03T11:40:50.159Z,71.39
2019-05-03T11:43:20.083Z,69.66
2019-05-03T11:45:48.334Z,70.02
2019-05-03T11:48:16.610Z,70.94
2019-05-03T11:50:45.327Z,70.82
2019-05-03T11:53:14.584Z,70.50
2019-05-03T11:55:46.404Z,69.89
2019-05-03T11:58:21.314Z,69.23
2019-05-03T12:01:14.979Z,67.39
2019-05-03T12:03:37.672Z,67.75
2019-05-03T12:06:05.934Z,67.11
2019-05-03T12:08:34.686Z,67.28
2019-05-03T12:11:02.938Z,67.25
2019-05-03T12:13:31.701Z,69.00
2019-05-03T12:16:01.092Z,69.60
2019-05-03T12:18:29.757Z,68.89
2019-05-03T12:20:59.598Z,70.23
2019-05-03T12:23:31.304Z,69.26
2019-05-03T12:25:58.845Z,70.17
2019-05-03T12:28:27.498Z,69.53
2019-05-03T12:30:55.747Z,69.35
2019-05-03T12:33:26.022Z,69.88
2019-05-03T12:35:55.250Z,68.67
2019-05-03T12:38:25.508Z,68.61
2019-05-03T12:40:54.602Z,67.76
2019-05-03T12:43:22.916Z,68.47
2019-05-03T12:45:51.162Z,68.86
2019-05-03T12:48:19.440Z,69.06
2019-05-03T12:50:48.197Z,69.62
2019-05-03T12:53:16.854Z,70.20
2019-05-03T12:55:45.116Z,70.15
2019-05-03T12:58:15.057Z,68.87
2019-05-03T13:00:48.441Z,70.86
2019-05-03T13:03:17.975Z,69.97
2019-05-03T13:05:46.185Z,71.91
2019-05-03T13:08:31.703Z,70.27
2019-05-03T13:10:59.964Z,70.12
2019-05-03T13:13:28.388Z,68.58
2019-05-03T13:15:56.721Z,69.59
2019-05-03T13:18:25.333Z,69.70
2019-05-03T13:20:55.848Z,68.98
2019-05-03T13:23:25.426Z,68.33
2019-05-03T13:25:53.904Z,69.59
2019-05-03T13:28:22.163Z,68.86
2019-05-03T13:30:50.457Z,67.96
2019-05-03T13:33:18.715Z,69.08
2019-05-03T13:35:47.018Z,68.73
2019-05-03T13:38:15.347Z,69.68
2019-05-03T13:40:45.340Z,69.56
2019-05-03T13:43:15.082Z,70.57
2019-05-03T13:45:44.842Z,71.61
2019-05-03T13:48:16.877Z,71.16
2019-05-03T13:50:44.574Z,72.25
2019-05-03T13:53:13.066Z,70.50
2019-05-03T13:55:41.349Z,69.63
2019-05-03T13:58:09.669Z,70.58
2019-05-03T14:00:37.948Z,70.80
2019-05-03T14:03:06.304Z,70.76
2019-05-03T14:05:35.160Z,71.58
2019-05-03T14:08:05.097Z,71.14
2019-05-03T14:10:35.713Z,70.75
2019-05-03T14:13:06.552Z,69.26
2019-05-03T14:15:37.052Z,69.33
2019-05-03T14:18:06.161Z,69.33
2019-05-03T14:20:38.885Z,68.88
2019-05-03T14:23:07.910Z,68.02
2019-05-03T14:25:36.187Z,68.93
2019-05-03T14:28:05.460Z,69.39
2019-05-03T14:30:34.617Z,69.11
2019-05-03T14:33:05.054Z,68.83
2019-05-03T14:35:34.644Z,68.87
2019-05-03T14:38:03.039Z,69.62
2019-05-03T14:40:33.018Z,69.44
2019-05-03T14:43:04.805Z,69.33
2019-05-03T14:45:34.972Z,69.89
2019-05-03T14:48:05.939Z,70.66
2019-05-03T14:50:35.050Z,71.14
2019-05-03T14:53:05.414Z,72.27
2019-05-03T14:55:50.915Z,72.27
2019-05-03T14:58:25.733Z,72.57
2019-05-03T15:00:57.423Z,71.17
2019-05-03T15:03:27.654Z,70.02
2019-05-03T15:05:58.339Z,69.55
2019-05-03T15:08:25.992Z,69.42
2019-05-03T15:10:54.710Z,69.55
2019-05-03T15:13:24.950Z,69.30
2019-05-03T15:15:54.754Z,69.63
2019-05-03T15:18:25.371Z,69.39
2019-05-03T15:20:55.022Z,69.02
2019-05-03T15:23:25.230Z,69.04
2019-05-03T15:25:54.599Z,68.37
2019-05-03T15:28:22.362Z,68.18
2019-05-03T15:30:50.642Z,68.43
2019-05-03T15:33:18.889Z,68.33
2019-05-03T15:35:47.168Z,68.92
2019-05-03T15:38:15.465Z,69.04
2019-05-03T15:40:46.194Z,70.33
2019-05-03T15:43:15.792Z,70.06
2019-05-03T15:45:54.902Z,70.51
2019-05-03T15:48:24.832Z,69.75
2019-05-03T15:50:55.175Z,69.30
2019-05-03T15:53:24.709Z,69.23
2019-05-03T15:55:54.999Z,69.73
2019-05-03T15:58:24.687Z,70.52
2019-05-03T16:00:55.172Z,69.09
2019-05-03T16:03:25.298Z,68.94
2019-05-03T16:05:55.439Z,67.88
2019-05-03T16:08:24.791Z,67.44
2019-05-03T16:10:54.706Z,67.73
2019-05-03T16:13:22.498Z,67.92
2019-05-03T16:15:50.764Z,67.08
2019-05-03T16:18:19.106Z,67.24
2019-05-03T16:20:47.362Z,67.33
2019-05-03T16:23:15.641Z,68.10
2019-05-03T16:25:44.894Z,67.78
2019-05-03T16:28:15.301Z,67.93
2019-05-03T16:30:45.567Z,67.99
2019-05-03T16:33:26.629Z,67.09
2019-05-03T16:35:45.168Z,67.35
2019-05-03T16:38:15.586Z,67.68
2019-05-03T16:40:45.127Z,67.68
2019-05-03T16:43:15.981Z,67.76
2019-05-03T16:45:44.486Z,67.48
2019-05-03T16:48:12.844Z,67.59
2019-05-03T16:50:41.103Z,67.83
2019-05-03T16:53:09.386Z,68.30
2019-05-03T16:55:37.699Z,68.90
2019-05-03T16:58:05.982Z,68.81
2019-05-03T17:00:35.260Z,68.63
2019-05-03T17:03:03.081Z,70.27
2019-05-03T17:05:41.848Z,71.95
2019-05-03T17:08:17.536Z,74.74
2019-05-03T17:10:54.499Z,75.79
2019-05-03T17:13:25.172Z,77.13
2019-05-03T17:15:53.187Z,77.43
2019-05-03T17:18:21.504Z,77.64
2019-05-03T17:20:49.765Z,77.40
2019-05-03T17:23:19.360Z,76.28
2019-05-03T17:25:47.627Z,77.98
2019-05-03T17:28:15.893Z,80.14
2019-05-03T17:30:44.556Z,81.21
2019-05-03T17:33:13.017Z,82.20
2019-05-03T17:35:41.347Z,83.23
2019-05-03T17:38:09.629Z,83.61
2019-05-03T17:40:39.520Z,84.91
2019-05-03T17:43:25.263Z,84.68
2019-05-03T17:45:57.906Z,85.99
2019-05-03T17:48:26.211Z,85.19
2019-05-03T17:50:55.043Z,84.94
2019-05-03T17:53:30.564Z,85.34
2019-05-03T17:56:04.646Z,85.57
2019-05-03T17:58:40.159Z,85.23
2019-05-03T18:01:26.182Z,85.35
2019-05-03T18:04:11.120Z,85.65
2019-05-03T18:06:49.931Z,85.49
2019-05-03T18:09:25.541Z,85.31
2019-05-03T18:12:06.301Z,85.26
2019-05-03T18:14:34.699Z,85.46
2019-05-03T18:17:03.038Z,85.55
2019-05-03T18:19:31.331Z,85.46
2019-05-03T18:21:59.602Z,85.38
2019-05-03T18:24:29.481Z,85.53
2019-05-03T18:26:57.836Z,85.30
2019-05-03T18:29:26.200Z,84.71
2019-05-03T18:31:55.096Z,84.52
2019-05-03T18:34:24.912Z,84.53
2019-05-03T18:36:53.327Z,84.78
2019-05-03T18:39:21.608Z,84.95
2019-05-03T18:41:49.935Z,86.01
2019-05-03T18:44:25.567Z,86.34
2019-05-03T18:46:55.530Z,86.62
2019-05-03T18:49:24.828Z,86.04
2019-05-03T18:51:55.367Z,85.41
2019-05-03T18:54:24.566Z,84.65
2019-05-03T18:56:53.112Z,86.24
2019-05-03T18:59:21.426Z,85.80
2019-05-03T19:01:49.756Z,85.55
2019-05-03T19:04:34.062Z,85.43
2019-05-03T19:07:03.727Z,85.31
2019-05-03T19:09:34.632Z,85.47
2019-05-03T19:12:15.290Z,86.42
2019-05-03T19:14:44.150Z,86.25
2019-05-03T19:17:15.421Z,86.44
2019-05-03T19:19:50.929Z,86.19
2019-05-03T19:22:19.463Z,86.30
2019-05-03T19:24:49.827Z,86.72
2019-05-03T19:27:18.103Z,86.89
2019-05-03T19:29:46.493Z,87.01
2019-05-03T19:32:15.075Z,87.09
2019-05-03T19:34:48.449Z,87.60
2019-05-03T19:37:14.519Z,87.72
2019-05-03T19:39:42.930Z,87.78
2019-05-03T19:42:11.252Z,87.65
2019-05-03T19:44:39.525Z,87.11
2019-05-03T19:47:08.423Z,86.74
2019-05-03T19:49:36.710Z,86.68
2019-05-03T19:52:05.270Z,86.19
2019-05-03T19:54:36.091Z,85.90
2019-05-03T19:57:05.017Z,86.00
2019-05-03T19:59:52.354Z,86.31
2019-05-03T20:02:25.093Z,87.04
2019-05-03T20:05:11.211Z,87.30
2019-05-03T20:07:59.479Z,87.85
2019-05-03T20:10:28.231Z,87.80
2019-05-03T20:12:56.505Z,87.56
2019-05-03T20:15:24.781Z,87.75
2019-05-03T20:17:59.142Z,87.95
2019-05-03T20:20:23.036Z,87.87
2019-05-03T20:22:51.309Z,87.76
2019-05-03T20:25:19.556Z,87.51
2019-05-03T20:27:47.830Z,87.38
2019-05-03T20:30:16.078Z,87.63
2019-05-03T20:32:45.063Z,88.00
2019-05-03T20:35:18.787Z,88.43
2019-05-03T20:37:44.887Z,88.67
2019-05-03T20:40:15.359Z,88.29
2019-05-03T20:42:47.822Z,87.56
2019-05-03T20:45:24.866Z,87.78
2019-05-03T20:47:54.995Z,88.07
2019-05-03T20:50:24.747Z,88.52
2019-05-03T20:52:54.987Z,89.13
2019-05-03T20:55:25.493Z,89.10
2019-05-03T20:57:54.932Z,88.99
2019-05-03T21:00:25.572Z,89.07
2019-05-03T21:02:57.042Z,89.35
2019-05-03T21:05:30.448Z,90.19
2019-05-03T21:07:54.985Z,90.32
2019-05-03T21:10:23.305Z,89.87
2019-05-03T21:12:51.640Z,89.61
2019-05-03T21:15:24.562Z,90.39
2019-05-03T21:17:55.560Z,90.50
2019-05-03T21:23:35.360Z,89.31
2019-05-03T21:26:12.518Z,88.58
2019-05-03T21:28:35.331Z,88.58
2019-05-03T21:31:05.389Z,88.51
2019-05-03T21:33:35.471Z,88.84
2019-05-03T21:36:04.603Z,89.17
2019-05-03T21:38:35.188Z,88.91
2019-05-03T21:41:05.173Z,89.43
2019-05-03T21:43:34.873Z,89.25
2019-05-03T21:46:04.871Z,88.68
2019-05-03T21:48:51.200Z,88.27
2019-05-03T21:51:19.456Z,88.19
2019-05-03T21:53:47.767Z,87.92
2019-05-03T21:56:16.064Z,86.65
2019-05-03T21:58:45.296Z,86.53
2019-05-03T22:01:15.511Z,86.51
2019-05-03T22:03:44.779Z,86.48
2019-05-03T22:06:15.446Z,86.26
2019-05-03T22:08:45.353Z,86.48
2019-05-03T22:11:14.819Z,87.09
2019-05-03T22:13:45.437Z,87.32
2019-05-03T22:16:27.138Z,87.34
2019-05-03T22:18:55.488Z,87.30
2019-05-03T22:21:37.088Z,87.36
2019-05-03T22:24:07.036Z,87.48
2019-05-03T22:26:53.233Z,88.50
2019-05-03T22:29:21.511Z,89.56
2019-05-03T22:31:49.766Z,90.14
2019-05-03T22:34:18.046Z,90.59
2019-05-03T22:36:46.297Z,91.15
2019-05-03T22:39:15.798Z,91.07
2019-05-03T22:41:44.116Z,91.70
2019-05-03T22:44:14.769Z,92.07
2019-05-03T22:46:44.477Z,91.50
2019-05-03T22:49:12.393Z,90.53
2019-05-03T22:51:40.672Z,91.11
2019-05-03T22:54:08.961Z,91.72
2019-05-03T22:56:37.213Z,91.49
2019-05-03T22:59:06.283Z,90.86
2019-05-03T23:01:35.218Z,90.10
2019-05-03T23:04:05.441Z,90.55
2019-05-03T23:06:33.684Z,91.28
2019-05-03T23:09:01.973Z,91.84
2019-05-03T23:11:30.226Z,92.16
2019-05-03T23:14:04.623Z,92.22
2019-05-03T23:16:33.029Z,91.74
2019-05-03T23:19:00.735Z,91.27
2019-05-03T23:21:30.689Z,90.38
2019-05-03T23:23:59.015Z,90.95
2019-05-03T23:26:27.291Z,91.02
2019-05-03T23:28:55.615Z,91.17
2019-05-03T23:31:25.136Z,91.15
2019-05-03T23:33:54.479Z,91.04
2019-05-03T23:36:32.686Z,90.58
2019-05-03T23:38:54.647Z,90.26
2019-05-03T23:41:24.577Z,90.32
2019-05-03T23:43:52.979Z,90.51
2019-05-03T23:46:22.907Z,90.82
2019-05-03T23:48:51.173Z,91.12
2019-05-03T23:51:37.554Z,90.77
2019-05-03T23:54:06.498Z,90.74
2019-05-03T23:56:35.115Z,89.94
2019-05-03T23:59:05.383Z,89.43
